createdAt,value
2023-03-10T00:00:24.067Z,9.00
2023-03-10T00:15:24.175Z,9.40
2023-03-10T00:30:24.083Z,9.20
2023-03-10T00:45:24.168Z,9.00
2023-03-10T01:00:24.390Z,8.55
2023-03-10T01:15:24.157Z,8.45
2023-03-10T01:30:33.384Z,8.50
2023-03-10T01:45:33.297Z,8.50
2023-03-10T02:00:33.499Z,9.00
2023-03-10T02:15:23.634Z,9.57
2023-03-10T02:30:23.602Z,9.50
2023-03-10T02:45:23.720Z,10.00
2023-03-10T03:00:23.765Z,9.73
2023-03-10T03:15:23.572Z,9.60
2023-03-10T03:30:23.754Z,9.57
2023-03-10T03:45:23.492Z,9.70
2023-03-10T04:00:23.693Z,9.70
2023-03-10T04:15:23.870Z,9.75
2023-03-10T04:30:23.934Z,9.77
2023-03-10T04:45:23.676Z,9.68
2023-03-10T05:00:24.395Z,9.60
2023-03-10T05:15:24.064Z,9.67
2023-03-10T05:30:23.862Z,9.68
2023-03-10T05:45:23.858Z,9.73
2023-03-10T06:00:24.223Z,9.57
2023-03-10T06:15:25.747Z,9.52
2023-03-10T06:30:33.154Z,9.52
2023-03-10T06:45:33.307Z,9.52
2023-03-10T07:00:33.283Z,9.60
2023-03-10T07:15:23.365Z,9.75
2023-03-10T07:30:23.552Z,9.90
2023-03-10T07:45:24.024Z,10.15
2023-03-10T08:00:23.744Z,10.30
2023-03-10T08:15:23.504Z,10.35
2023-03-10T08:30:23.740Z,10.35
2023-03-10T08:45:23.974Z,10.45
2023-03-10T09:00:23.942Z,10.70
2023-03-10T09:15:23.748Z,10.80
2023-03-10T09:30:23.848Z,11.42
2023-03-10T09:45:23.761Z,11.35
2023-03-10T10:00:23.829Z,11.30
2023-03-10T10:15:23.777Z,11.35
2023-03-10T10:30:26.463Z,11.53
2023-03-10T10:45:23.925Z,11.75
2023-03-10T11:00:24.876Z,11.70
2023-03-10T11:15:23.890Z,11.75
2023-03-10T11:30:25.843Z,11.98
2023-03-10T11:45:23.519Z,11.90
2023-03-10T12:00:25.730Z,11.67
2023-03-10T12:15:23.945Z,11.55
2023-03-10T12:30:25.839Z,11.82
2023-03-10T12:45:23.695Z,11.80
2023-03-10T13:00:23.758Z,11.53
2023-03-10T13:15:24.858Z,11.35
2023-03-10T13:30:23.883Z,11.10
2023-03-10T13:45:24.013Z,10.93
2023-03-10T14:00:24.000Z,10.97
2023-03-10T14:15:23.869Z,10.60
2023-03-10T14:30:33.167Z,10.55
2023-03-10T14:45:33.493Z,10.67
2023-03-10T15:00:33.251Z,10.48
2023-03-10T15:15:23.104Z,10.18
2023-03-10T15:30:23.469Z,9.82
2023-03-10T15:45:23.648Z,9.57
2023-03-10T16:00:23.610Z,9.77
2023-03-10T16:15:23.688Z,9.55
2023-03-10T16:30:23.871Z,9.40
2023-03-10T16:45:23.938Z,8.52
2023-03-10T17:00:24.794Z,8.47
2023-03-10T17:15:23.993Z,8.25
2023-03-10T17:30:24.095Z,8.18
2023-03-10T17:45:23.844Z,7.95
2023-03-10T18:00:23.680Z,7.85
2023-03-10T18:15:24.040Z,8.05
2023-03-10T18:30:23.890Z,8.05
2023-03-10T18:45:23.847Z,7.68
2023-03-10T19:00:23.969Z,7.73
2023-03-10T19:15:23.986Z,7.30
2023-03-10T19:30:23.960Z,7.07
2023-03-10T19:45:33.088Z,6.85
2023-03-10T20:00:33.365Z,6.75
2023-03-10T20:15:23.190Z,6.72
2023-03-10T20:30:23.394Z,6.62
2023-03-10T20:45:23.451Z,6.37
2023-03-10T21:00:23.388Z,6.07
2023-03-10T21:15:23.505Z,5.93
2023-03-10T21:30:23.602Z,5.65
2023-03-10T21:45:23.572Z,5.52
2023-03-10T22:00:23.697Z,5.43
2023-03-10T22:15:23.746Z,5.30
2023-03-10T22:30:23.771Z,5.30
2023-03-10T22:45:23.793Z,5.18
2023-03-10T23:00:49.825Z,4.80
2023-03-10T23:15:25.261Z,4.32
2023-03-10T23:30:23.335Z,4.43
2023-03-10T23:45:23.540Z,4.18
